createdAt,value
2019-04-11T00:01:14.151Z,29.10
2019-04-11T00:03:41.690Z,28.75
2019-04-11T00:06:08.044Z,28.48
2019-04-11T00:08:37.007Z,32.65
2019-04-11T00:11:03.788Z,31.12
2019-04-11T00:13:34.323Z,35.30
2019-04-11T00:15:57.851Z,31.70
2019-04-11T00:18:25.263Z,30.02
2019-04-11T00:20:52.825Z,36.63
2019-04-11T00:23:20.104Z,32.30
2019-04-11T00:25:47.541Z,32.00
2019-04-11T00:28:15.341Z,34.75
2019-04-11T00:30:42.373Z,35.20
2019-04-11T00:33:09.890Z,33.00
2019-04-11T00:35:37.250Z,31.37
2019-04-11T00:38:05.555Z,35.67
2019-04-11T00:40:33.216Z,36.38
2019-04-11T00:42:59.519Z,38.75
2019-04-11T00:45:27.560Z,38.67
2019-04-11T00:47:55.311Z,35.50
2019-04-11T00:50:21.775Z,40.45
2019-04-11T00:52:49.633Z,43.20
2019-04-11T00:55:17.548Z,38.03
2019-04-11T00:57:45.121Z,38.17
2019-04-11T01:00:11.661Z,44.85
2019-04-11T01:02:40.709Z,40.47
2019-04-11T01:05:07.560Z,38.67
2019-04-11T01:07:35.236Z,39.13
2019-04-11T01:10:01.457Z,42.00
2019-04-11T01:12:28.977Z,45.70
2019-04-11T01:14:57.298Z,42.45
2019-04-11T01:17:23.759Z,44.15
2019-04-11T01:19:51.199Z,41.10
2019-04-11T01:22:18.640Z,38.33
2019-04-11T01:24:46.102Z,38.50
2019-04-11T01:27:13.951Z,42.13
2019-04-11T01:29:41.861Z,41.88
2019-04-11T01:32:08.389Z,37.95
2019-04-11T01:34:36.996Z,41.63
2019-04-11T01:37:03.787Z,35.20
2019-04-11T01:39:33.226Z,32.72
2019-04-11T01:42:00.789Z,35.92
2019-04-11T01:44:28.424Z,36.53
2019-04-11T01:46:56.297Z,42.40
2019-04-11T01:49:24.039Z,37.78
2019-04-11T01:51:50.804Z,40.92
2019-04-11T01:54:17.924Z,41.03
2019-04-11T01:56:45.457Z,38.33
2019-04-11T01:59:13.218Z,42.95
2019-04-11T02:01:41.108Z,35.38
2019-04-11T02:04:08.470Z,41.05
2019-04-11T02:06:36.243Z,42.00
2019-04-11T02:09:03.929Z,41.42
2019-04-11T02:11:31.736Z,43.28
2019-04-11T02:14:09.846Z,40.70
2019-04-11T02:16:25.683Z,39.45
2019-04-11T02:18:54.020Z,44.83
2019-04-11T02:21:20.531Z,43.40
2019-04-11T02:23:49.352Z,39.97
2019-04-11T02:26:20.932Z,41.33
2019-04-11T02:28:48.746Z,44.13
2019-04-11T02:31:17.143Z,42.60
2019-04-11T02:33:43.308Z,44.75
2019-04-11T02:36:11.828Z,49.63
2019-04-11T02:38:38.916Z,47.38
2019-04-11T02:41:06.473Z,41.17
2019-04-11T02:43:34.087Z,52.62
2019-04-11T02:46:12.987Z,43.03
2019-04-11T02:48:28.782Z,52.50
2019-04-11T02:50:56.321Z,45.90
2019-04-11T02:53:23.628Z,47.03
2019-04-11T02:55:49.740Z,46.47
2019-04-11T02:58:18.522Z,51.25
2019-04-11T03:00:45.082Z,42.53
2019-04-11T03:03:13.017Z,36.78
2019-04-11T03:05:39.481Z,42.67
2019-04-11T03:08:10.674Z,39.30
2019-04-11T03:10:35.485Z,39.63
2019-04-11T03:13:02.784Z,40.47
2019-04-11T03:15:46.661Z,42.22
2019-04-11T03:18:01.858Z,42.70
2019-04-11T03:20:31.411Z,54.90
2019-04-11T03:22:57.316Z,40.42
2019-04-11T03:25:18.531Z,45.12
2019-04-11T03:27:47.476Z,39.00
2019-04-11T03:30:17.257Z,46.88
2019-04-11T03:35:59.777Z,45.67
2019-04-11T03:37:58.702Z,43.00
2019-04-11T03:40:22.518Z,50.75
2019-04-11T03:42:43.316Z,38.17
2019-04-11T03:45:21.004Z,48.40
2019-04-11T03:47:37.371Z,44.95
2019-04-11T03:50:00.880Z,41.33
2019-04-11T03:52:20.848Z,39.42
2019-04-11T03:54:49.440Z,43.60
2019-04-11T03:57:16.015Z,43.30
2019-04-11T03:59:43.759Z,42.97
2019-04-11T04:02:12.418Z,48.03
2019-04-11T04:04:39.148Z,48.28
2019-04-11T04:07:06.784Z,41.35
2019-04-11T04:09:32.859Z,45.08
2019-04-11T04:12:00.370Z,42.95
2019-04-11T04:14:28.568Z,46.70
2019-04-11T04:17:01.184Z,51.28
2019-04-11T04:22:32.496Z,62.42
2019-04-11T04:25:01.094Z,44.28
2019-04-11T04:27:28.029Z,55.20
2019-04-11T04:29:57.661Z,44.00
2019-04-11T04:32:23.722Z,45.63
2019-04-11T04:34:50.822Z,48.05
2019-04-11T04:37:18.115Z,48.28
2019-04-11T04:39:45.684Z,41.55
2019-04-11T04:42:23.493Z,52.33
2019-04-11T04:44:40.937Z,43.47
2019-04-11T04:47:17.894Z,49.90
2019-04-11T04:49:36.459Z,47.03
2019-04-11T04:52:03.995Z,43.35
2019-04-11T04:54:30.758Z,43.13
2019-04-11T04:56:58.337Z,45.00
2019-04-11T04:59:25.233Z,43.28
2019-04-11T05:01:53.319Z,43.67
2019-04-11T05:04:21.034Z,42.38
2019-04-11T05:06:48.985Z,45.22
2019-04-11T05:09:14.784Z,47.10
2019-04-11T05:11:44.525Z,47.50
2019-04-11T05:14:10.508Z,47.90
2019-04-11T05:16:37.832Z,45.05
2019-04-11T05:19:06.514Z,45.17
2019-04-11T05:21:33.092Z,49.92
2019-04-11T05:24:00.192Z,46.60
2019-04-11T05:26:27.839Z,51.72
2019-04-11T05:28:55.244Z,45.12
2019-04-11T05:31:22.704Z,42.97
2019-04-11T05:33:49.868Z,35.30
2019-04-11T05:36:18.584Z,45.28
2019-04-11T05:38:44.702Z,43.00
2019-04-11T05:41:13.485Z,44.55
2019-04-11T05:43:41.274Z,43.97
2019-04-11T05:48:41.215Z,45.17
2019-04-11T05:51:08.866Z,41.30
2019-04-11T05:53:36.990Z,38.85
2019-04-11T05:56:03.739Z,36.00
2019-04-11T05:58:30.867Z,49.70
2019-04-11T06:01:14.527Z,46.90
2019-04-11T06:03:43.135Z,52.47
2019-04-11T06:08:51.530Z,50.47
2019-04-11T06:11:22.220Z,40.53
2019-04-11T06:13:48.826Z,43.30
2019-04-11T06:16:15.108Z,45.70
2019-04-11T06:18:45.840Z,45.78
2019-04-11T06:21:13.771Z,40.38
2019-04-11T06:26:38.934Z,57.08
2019-04-11T06:29:22.840Z,50.90
2019-04-11T06:31:47.526Z,48.83
2019-04-11T06:34:15.568Z,51.65
2019-04-11T06:36:43.393Z,56.63
2019-04-11T06:42:04.143Z,63.00
2019-04-11T06:44:30.058Z,47.10
2019-04-11T06:49:58.609Z,67.95
2019-04-11T06:52:26.510Z,52.13
2019-04-11T06:54:56.617Z,49.70
2019-04-11T06:57:25.747Z,50.65
2019-04-11T06:59:52.995Z,47.05
2019-04-11T07:02:23.292Z,50.20
2019-04-11T07:07:41.020Z,63.78
2019-04-11T07:10:09.549Z,54.43
2019-04-11T07:12:47.127Z,50.12
2019-04-11T07:15:14.489Z,54.08
2019-04-11T07:17:48.095Z,45.72
2019-04-11T07:20:14.942Z,56.63
2019-04-11T07:22:48.824Z,54.65
2019-04-11T07:25:30.999Z,57.70
2019-04-11T07:27:59.344Z,47.05
2019-04-11T07:33:24.534Z,73.07
2019-04-11T07:35:59.736Z,54.45
2019-04-11T07:38:24.999Z,52.20
2019-04-11T07:40:56.075Z,64.43
2019-04-11T07:43:22.619Z,51.80
2019-04-11T07:45:49.863Z,52.08
2019-04-11T07:48:17.731Z,52.10
2019-04-11T07:50:46.432Z,49.25
2019-04-11T07:53:12.872Z,52.60
2019-04-11T07:55:40.062Z,57.62
2019-04-11T07:58:25.176Z,48.78
2019-04-11T08:01:03.621Z,52.62
2019-04-11T08:06:31.047Z,76.37
2019-04-11T08:09:13.168Z,54.97
2019-04-11T08:11:40.624Z,64.18
2019-04-11T08:14:10.540Z,52.65
2019-04-11T08:19:36.327Z,63.97
2019-04-11T08:22:12.217Z,56.50
2019-04-11T08:24:45.270Z,53.10
2019-04-11T08:27:27.583Z,52.85
2019-04-11T08:29:54.988Z,54.60
2019-04-11T08:32:27.940Z,46.97
2019-04-11T08:35:08.133Z,50.12
2019-04-11T08:37:39.999Z,46.92
2019-04-11T08:40:06.643Z,52.15
2019-04-11T08:42:37.755Z,48.50
2019-04-11T08:45:04.092Z,51.35
2019-04-11T08:47:41.979Z,42.97
2019-04-11T08:49:58.754Z,43.80
2019-04-11T08:52:27.942Z,48.35
2019-04-11T08:54:57.995Z,59.50
2019-04-11T08:57:28.968Z,47.50
2019-04-11T09:30:41.233Z,55.20
2019-04-11T09:45:48.318Z,55.40
2019-04-11T09:50:48.981Z,47.90
2019-04-11T10:03:17.707Z,49.07
2019-04-11T10:13:26.900Z,61.85
2019-04-11T10:21:23.021Z,51.85
2019-04-11T10:29:33.359Z,56.70
2019-04-11T10:32:01.049Z,61.03
2019-04-11T10:34:43.962Z,47.03
2019-04-11T10:37:11.785Z,48.33
2019-04-11T10:39:44.829Z,45.65
2019-04-11T10:42:12.699Z,50.05
2019-04-11T10:44:45.755Z,55.90
2019-04-11T10:47:16.460Z,45.10
2019-04-11T10:52:42.448Z,59.43
2019-04-11T10:55:09.431Z,54.70
2019-04-11T10:57:40.413Z,46.92
2019-04-11T11:00:14.183Z,50.60
2019-04-11T11:02:41.807Z,53.53
2019-04-11T11:05:09.335Z,46.97
2019-04-11T11:07:37.058Z,50.92
2019-04-11T11:10:04.543Z,47.97
2019-04-11T11:12:32.974Z,51.20
2019-04-11T11:15:05.155Z,51.28
2019-04-11T11:17:54.535Z,44.08
2019-04-11T11:23:16.796Z,54.20
2019-04-11T11:28:55.229Z,54.13
2019-04-11T11:31:28.156Z,44.15
2019-04-11T11:33:56.538Z,41.37
2019-04-11T11:39:15.308Z,57.40
2019-04-11T11:41:46.888Z,46.35
2019-04-11T11:44:14.068Z,49.70
2019-04-11T11:46:44.530Z,40.45
2019-04-11T11:49:12.099Z,49.70
2019-04-11T11:51:41.505Z,48.97
2019-04-11T11:54:13.770Z,47.50
2019-04-11T11:56:42.282Z,48.60
2019-04-11T11:59:25.312Z,49.28
2019-04-11T12:01:54.274Z,43.92
2019-04-11T12:04:27.714Z,43.38
2019-04-11T12:06:59.762Z,43.78
2019-04-11T12:09:22.406Z,41.35
2019-04-11T12:15:01.494Z,54.00
2019-04-11T12:17:32.478Z,45.08
2019-04-11T12:20:09.764Z,46.35
2019-04-11T12:22:30.714Z,48.33
2019-04-11T12:24:58.787Z,42.80
2019-04-11T12:27:26.803Z,39.90
2019-04-11T12:30:09.559Z,43.80
2019-04-11T12:32:46.670Z,42.47
2019-04-11T12:35:19.890Z,45.93
2019-04-11T12:37:50.352Z,37.70
2019-04-11T12:40:19.727Z,46.08
2019-04-11T12:42:47.205Z,42.80
2019-04-11T12:45:20.998Z,41.42
2019-04-11T12:47:48.713Z,49.40
2019-04-11T12:53:09.170Z,47.83
2019-04-11T12:55:54.238Z,44.47
2019-04-11T12:58:25.287Z,44.85
2019-04-11T13:04:01.654Z,50.27
2019-04-11T13:06:35.271Z,41.42
2019-04-11T13:09:02.827Z,47.25
2019-04-11T13:11:30.279Z,45.63
2019-04-11T13:14:12.616Z,35.10
2019-04-11T13:16:40.039Z,37.38
2019-04-11T13:22:05.933Z,50.92
2019-04-11T13:24:33.383Z,38.35
2019-04-11T13:27:13.475Z,43.17
2019-04-11T13:29:57.691Z,38.22
2019-04-11T13:32:29.497Z,44.97
2019-04-11T13:35:12.670Z,44.85
2019-04-11T13:40:53.900Z,46.47
2019-04-11T13:43:36.896Z,45.80
2019-04-11T13:46:25.285Z,37.50
2019-04-11T13:48:57.149Z,41.25
2019-04-11T13:51:38.338Z,38.13
2019-04-11T13:54:11.395Z,40.87
2019-04-11T13:56:45.186Z,44.80
2019-04-11T13:59:11.798Z,35.20
2019-04-11T14:01:39.209Z,42.15
2019-04-11T14:04:08.688Z,40.20
2019-04-11T14:06:35.055Z,36.72
2019-04-11T14:09:04.290Z,37.50
2019-04-11T14:11:33.754Z,39.42
2019-04-11T14:13:59.153Z,48.00
2019-04-11T14:16:26.576Z,39.90
2019-04-11T14:18:54.934Z,43.60
2019-04-11T14:21:22.346Z,42.58
2019-04-11T14:26:46.118Z,51.77
2019-04-11T14:29:15.352Z,44.30
2019-04-11T14:31:46.618Z,44.65
2019-04-11T14:34:19.610Z,41.95
2019-04-11T14:36:47.952Z,42.40
2019-04-11T14:39:31.528Z,39.00
2019-04-11T14:42:18.474Z,46.75
2019-04-11T14:44:45.849Z,41.72
2019-04-11T14:47:17.678Z,46.92
2019-04-11T14:49:45.089Z,39.90
2019-04-11T14:52:16.929Z,38.50
2019-04-11T14:54:42.378Z,42.85
2019-04-11T14:57:16.364Z,41.15
2019-04-11T14:59:43.811Z,39.50
2019-04-11T15:02:25.041Z,43.10
2019-04-11T15:04:58.027Z,37.40
2019-04-11T15:07:25.443Z,43.15
2019-04-11T15:09:55.912Z,42.45
2019-04-11T15:12:25.698Z,32.20
2019-04-11T15:17:49.069Z,42.47
2019-04-11T15:20:22.334Z,36.92
2019-04-11T15:22:51.707Z,39.10
2019-04-11T15:28:17.684Z,47.43
2019-04-11T15:30:49.386Z,37.20
2019-04-11T15:33:20.187Z,40.60
2019-04-11T15:35:48.472Z,33.88
2019-04-11T15:38:21.616Z,39.97
2019-04-11T15:40:49.035Z,34.88
2019-04-11T15:43:22.111Z,34.67
2019-04-11T15:45:49.567Z,35.60
2019-04-11T15:48:23.577Z,35.67
2019-04-11T15:51:05.884Z,30.60
2019-04-11T15:56:20.724Z,40.50
2019-04-11T15:58:48.192Z,45.22
2019-04-11T16:01:21.149Z,42.83
2019-04-11T16:03:48.556Z,36.35
2019-04-11T16:06:21.465Z,41.00
2019-04-11T16:08:48.884Z,38.20
2019-04-11T16:11:16.788Z,36.33
2019-04-11T16:13:46.123Z,34.83
2019-04-11T16:16:13.546Z,37.40
2019-04-11T16:18:47.148Z,31.52
2019-04-11T16:21:18.643Z,35.17
2019-04-11T16:26:35.862Z,49.13
2019-04-11T16:29:19.972Z,34.60
2019-04-11T16:31:47.378Z,36.58
2019-04-11T16:34:18.322Z,32.72
2019-04-11T16:36:45.737Z,31.50
2019-04-11T16:39:28.791Z,38.55
2019-04-11T16:41:56.270Z,37.72
2019-04-11T16:44:26.097Z,35.78
2019-04-11T16:46:59.072Z,39.38
2019-04-11T16:49:26.871Z,40.12
2019-04-11T16:51:54.388Z,35.97
2019-04-11T16:54:22.757Z,32.65
2019-04-11T16:59:17.818Z,36.90
2019-04-11T17:01:44.745Z,38.47
2019-04-11T17:04:12.155Z,39.38
2019-04-11T17:06:50.290Z,41.60
2019-04-11T17:09:18.718Z,35.92
2019-04-11T17:11:46.145Z,38.88
2019-04-11T17:14:13.531Z,38.40
2019-04-11T17:16:41.616Z,30.88
2019-04-11T17:19:11.676Z,36.17
2019-04-11T17:21:43.163Z,37.95
2019-04-11T17:24:03.938Z,39.50
2019-04-11T17:26:31.395Z,40.55
2019-04-11T17:28:58.790Z,35.20
2019-04-11T17:31:26.650Z,35.97
2019-04-11T17:33:53.671Z,39.40
2019-04-11T17:36:21.128Z,45.05
2019-04-11T17:38:48.566Z,38.03
2019-04-11T17:41:15.970Z,33.10
2019-04-11T17:43:46.767Z,42.30
2019-04-11T17:46:11.991Z,36.95
2019-04-11T17:48:39.388Z,43.05
2019-04-11T17:51:09.452Z,38.55
2019-04-11T17:53:34.325Z,42.03
2019-04-11T17:56:01.728Z,42.38
2019-04-11T17:58:29.148Z,36.10
2019-04-11T18:00:57.094Z,42.58
2019-04-11T18:03:24.558Z,38.80
2019-04-11T18:05:51.966Z,41.50
2019-04-11T18:08:20.217Z,38.47
2019-04-11T18:10:46.804Z,49.65
2019-04-11T18:13:14.193Z,40.22
2019-04-11T18:15:41.629Z,38.83
2019-04-11T18:18:09.031Z,39.92
2019-04-11T18:20:37.076Z,41.67
2019-04-11T18:23:03.873Z,37.42
2019-04-11T18:25:31.430Z,34.10
2019-04-11T18:27:58.871Z,36.55
2019-04-11T18:30:26.299Z,42.30
2019-04-11T18:32:53.735Z,36.45
2019-04-11T18:35:21.148Z,34.65
2019-04-11T18:37:48.764Z,35.53
2019-04-11T18:40:16.170Z,42.33
2019-04-11T18:42:43.610Z,34.13
2019-04-11T18:45:11.023Z,38.33
2019-04-11T18:47:38.440Z,41.05
2019-04-11T18:50:05.942Z,41.08
2019-04-11T18:52:33.409Z,39.35
2019-04-11T18:55:00.840Z,36.55
2019-04-11T18:57:28.279Z,40.20
2019-04-11T18:59:55.682Z,37.60
2019-04-11T19:02:23.102Z,39.35
2019-04-11T19:04:50.540Z,36.38
2019-04-11T19:07:27.309Z,36.45
2019-04-11T19:09:45.395Z,39.75
2019-04-11T19:12:15.620Z,36.08
2019-04-11T19:14:40.246Z,44.58
2019-04-11T19:17:07.682Z,30.50
2019-04-11T19:19:35.094Z,36.60
2019-04-11T19:22:02.515Z,34.15
2019-04-11T19:24:35.329Z,34.60
2019-04-11T19:26:57.444Z,37.25
2019-04-11T19:29:25.588Z,43.80
2019-04-11T19:31:52.282Z,37.67
2019-04-11T19:34:19.731Z,34.10
2019-04-11T19:36:47.151Z,34.30
2019-04-11T19:39:14.689Z,39.80
2019-04-11T19:41:41.999Z,34.28
2019-04-11T19:44:09.410Z,38.38
2019-04-11T19:46:36.816Z,37.53
2019-04-11T19:49:04.260Z,33.00
2019-04-11T19:51:31.686Z,46.30
2019-04-11T19:54:02.915Z,36.22
2019-04-11T19:56:31.528Z,38.40
2019-04-11T19:58:58.932Z,35.63
2019-04-11T20:01:26.595Z,38.20
2019-04-11T20:03:54.666Z,39.15
2019-04-11T20:06:21.477Z,33.05
2019-04-11T20:08:48.904Z,34.33
2019-04-11T20:11:16.333Z,39.25
2019-04-11T20:13:43.893Z,33.67
2019-04-11T20:16:12.501Z,42.03
2019-04-11T20:18:49.955Z,39.08
2019-04-11T20:21:07.507Z,31.75
2019-04-11T20:23:33.503Z,34.03
2019-04-11T20:26:01.486Z,34.47
2019-04-11T20:28:28.903Z,32.65
2019-04-11T20:30:56.327Z,41.28
2019-04-11T20:33:27.278Z,37.03
2019-04-11T20:35:51.236Z,35.63
2019-04-11T20:38:18.646Z,31.30
2019-04-11T20:40:46.061Z,34.80
2019-04-11T20:43:13.485Z,32.53
2019-04-11T20:45:40.895Z,34.15
2019-04-11T20:48:08.291Z,33.33
2019-04-11T20:50:35.713Z,32.50
2019-04-11T20:53:12.039Z,31.35
2019-04-11T20:55:31.552Z,29.95
2019-04-11T20:57:58.963Z,39.10
2019-04-11T21:00:26.399Z,29.10
2019-04-11T21:02:58.083Z,32.10
2019-04-11T21:05:21.234Z,45.38
2019-04-11T21:07:48.709Z,34.20
2019-04-11T21:10:16.131Z,33.05
2019-04-11T21:12:43.546Z,30.98
2019-04-11T21:15:10.968Z,29.63
2019-04-11T21:17:38.389Z,32.85
2019-04-11T21:20:05.785Z,29.85
2019-04-11T21:22:33.223Z,29.77
2019-04-11T21:25:00.685Z,26.27
2019-04-11T21:27:28.924Z,31.08
2019-04-11T21:29:59.779Z,25.35
2019-04-11T21:32:22.933Z,26.70
2019-04-11T21:34:50.378Z,29.37
2019-04-11T21:37:17.854Z,32.33
2019-04-11T21:39:45.250Z,32.80
2019-04-11T21:42:12.671Z,31.48
2019-04-11T21:44:40.075Z,29.85
2019-04-11T21:47:07.995Z,36.33
2019-04-11T21:49:36.955Z,34.83
2019-04-11T21:52:03.218Z,30.30
2019-04-11T21:54:29.777Z,32.67
2019-04-11T21:56:57.225Z,34.75
2019-04-11T21:59:24.619Z,35.40
2019-04-11T22:01:54.120Z,34.22
2019-04-11T22:04:19.497Z,34.47
2019-04-11T22:06:46.927Z,31.37
2019-04-11T22:09:14.334Z,28.83
2019-04-11T22:11:41.749Z,35.20
2019-04-11T22:14:11.271Z,36.33
2019-04-11T22:16:36.588Z,35.85
2019-04-11T22:19:04.095Z,32.58
2019-04-11T22:21:31.711Z,43.42
2019-04-11T22:23:59.286Z,31.85
2019-04-11T22:26:26.721Z,36.90
2019-04-11T22:28:55.094Z,35.55
2019-04-11T22:31:24.729Z,39.75
2019-04-11T22:33:59.712Z,36.03
2019-04-11T22:36:27.858Z,36.72
2019-04-11T22:38:54.538Z,35.00
2019-04-11T22:41:22.010Z,40.80
2019-04-11T22:43:49.422Z,43.38
2019-04-11T22:46:20.984Z,43.10
2019-04-11T22:48:44.353Z,36.33
2019-04-11T22:51:11.966Z,42.17
2019-04-11T22:53:40.762Z,34.67
2019-04-11T22:56:06.574Z,38.53
2019-04-11T22:58:33.981Z,32.55
2019-04-11T23:01:01.386Z,33.13
2019-04-11T23:03:28.822Z,42.00
2019-04-11T23:05:56.215Z,36.20
2019-04-11T23:08:23.622Z,34.03
2019-04-11T23:10:51.040Z,40.38
2019-04-11T23:13:18.444Z,32.45
2019-04-11T23:15:45.863Z,33.45
2019-04-11T23:18:14.053Z,39.53
2019-04-11T23:20:43.809Z,34.72
2019-04-11T23:23:08.104Z,35.78
2019-04-11T23:25:35.527Z,35.58
2019-04-11T23:28:02.939Z,29.23
2019-04-11T23:30:30.355Z,31.10
2019-04-11T23:32:57.778Z,36.05
2019-04-11T23:35:25.178Z,35.60
2019-04-11T23:37:52.653Z,34.10
2019-04-11T23:42:47.820Z,32.53
2019-04-11T23:45:14.404Z,32.08
2019-04-11T23:47:41.817Z,37.60
2019-04-11T23:50:09.224Z,34.72
2019-04-11T23:52:36.663Z,36.95
2019-04-11T23:55:04.095Z,39.15
2019-04-11T23:57:31.827Z,32.92
2019-04-11T23:59:59.782Z,38.40
